createdAt,value
2023-04-23T00:00:23.540Z,43.20
2023-04-23T00:02:53.469Z,41.15
2023-04-23T00:05:21.070Z,44.35
2023-04-23T00:07:47.885Z,42.60
2023-04-23T00:10:14.765Z,39.28
2023-04-23T00:12:41.799Z,41.40
2023-04-23T00:15:09.092Z,36.67
2023-04-23T00:17:35.694Z,36.38
2023-04-23T00:20:02.802Z,42.05
2023-04-23T00:22:29.415Z,38.75
2023-04-23T00:24:56.003Z,40.22
2023-04-23T00:27:22.554Z,44.20
2023-04-23T00:29:50.473Z,46.67
2023-04-23T00:32:17.146Z,42.85
2023-04-23T00:34:43.921Z,41.85
2023-04-23T00:37:10.723Z,43.10
2023-04-23T00:39:38.702Z,40.63
2023-04-23T00:42:12.677Z,40.05
2023-04-23T00:44:40.378Z,43.75
2023-04-23T00:47:08.048Z,44.70
2023-04-23T00:49:35.515Z,59.30
2023-04-23T00:52:02.306Z,52.17
2023-04-23T00:54:28.966Z,56.83
2023-04-23T00:56:58.078Z,52.92
2023-04-23T00:59:28.500Z,53.50
2023-04-23T01:01:56.096Z,57.67
2023-04-23T01:04:22.959Z,52.57
2023-04-23T01:06:49.722Z,58.63
2023-04-23T01:09:18.092Z,50.00
2023-04-23T01:11:44.810Z,54.50
2023-04-23T01:14:11.745Z,61.75
2023-04-23T01:16:38.868Z,56.78
2023-04-23T01:19:07.750Z,57.83
2023-04-23T01:21:35.597Z,54.35
2023-04-23T01:24:05.682Z,56.85
2023-04-23T01:26:32.503Z,54.15
2023-04-23T01:28:59.989Z,55.58
2023-04-23T01:31:27.717Z,60.47
2023-04-23T01:33:55.484Z,59.67
2023-04-23T01:36:25.524Z,57.80
2023-04-23T01:38:53.198Z,58.03
2023-04-23T01:41:22.602Z,58.53
2023-04-23T01:43:49.306Z,57.35
2023-04-23T01:46:16.450Z,57.60
2023-04-23T01:48:43.246Z,51.70
2023-04-23T01:51:09.809Z,58.63
2023-04-23T01:53:36.386Z,62.95
2023-04-23T01:56:03.117Z,56.38
2023-04-23T01:58:29.730Z,55.40
2023-04-23T02:00:56.581Z,59.00
2023-04-23T02:03:23.600Z,58.65
2023-04-23T02:05:50.945Z,57.42
2023-04-23T02:08:17.561Z,57.35
2023-04-23T02:10:44.223Z,55.35
2023-04-23T02:13:10.843Z,56.92
2023-04-23T02:15:38.247Z,57.92
2023-04-23T02:18:05.068Z,59.45
2023-04-23T02:20:31.780Z,58.58
2023-04-23T02:22:59.431Z,56.45
2023-04-23T02:25:26.530Z,54.88
2023-04-23T02:27:53.104Z,54.25
2023-04-23T02:30:19.772Z,51.83
2023-04-23T02:32:46.466Z,52.58
2023-04-23T02:35:13.438Z,51.05
2023-04-23T02:37:40.063Z,51.80
2023-04-23T02:40:08.148Z,50.47
2023-04-23T02:42:34.942Z,50.17
2023-04-23T02:45:01.571Z,52.28
2023-04-23T02:47:28.185Z,48.10
2023-04-23T02:49:54.924Z,50.60
2023-04-23T02:52:21.774Z,50.83
2023-04-23T02:54:48.462Z,59.22
2023-04-23T02:57:16.451Z,51.65
2023-04-23T02:59:43.532Z,44.90
2023-04-23T03:02:10.396Z,44.40
2023-04-23T03:04:37.393Z,47.53
2023-04-23T03:07:04.011Z,49.22
2023-04-23T03:09:30.655Z,45.90
2023-04-23T03:11:57.783Z,45.10
2023-04-23T03:14:24.348Z,42.30
2023-04-23T03:16:51.056Z,51.45
2023-04-23T03:19:17.774Z,50.58
2023-04-23T03:21:44.308Z,46.35
2023-04-23T03:24:13.406Z,51.03
2023-04-23T03:26:39.986Z,46.92
2023-04-23T03:29:06.861Z,48.72
2023-04-23T03:31:33.594Z,56.50
2023-04-23T03:34:00.417Z,48.63
2023-04-23T03:36:27.007Z,54.17
2023-04-23T03:38:53.556Z,51.95
2023-04-23T03:41:20.126Z,51.00
2023-04-23T03:43:46.830Z,56.78
2023-04-23T03:46:13.434Z,55.10
2023-04-23T03:48:40.462Z,58.58
2023-04-23T03:51:07.015Z,59.25
2023-04-23T03:53:33.750Z,57.30
2023-04-23T03:56:00.316Z,56.15
2023-04-23T03:58:26.948Z,62.47
2023-04-23T04:00:54.430Z,57.58
2023-04-23T04:03:21.624Z,58.13
2023-04-23T04:05:48.403Z,55.00
2023-04-23T04:08:14.985Z,50.83
2023-04-23T04:10:41.586Z,48.83
2023-04-23T04:13:08.223Z,47.30
2023-04-23T04:15:34.802Z,53.20
2023-04-23T04:18:01.452Z,48.97
2023-04-23T04:20:30.962Z,48.53
2023-04-23T04:22:57.524Z,51.05
2023-04-23T04:25:24.288Z,48.25
2023-04-23T04:27:50.961Z,49.50
2023-04-23T04:30:17.546Z,58.33
2023-04-23T04:32:45.665Z,51.15
2023-04-23T04:35:15.531Z,58.30
2023-04-23T04:37:44.084Z,52.47
2023-04-23T04:42:39.187Z,48.63
2023-04-23T04:45:06.250Z,49.63
2023-04-23T04:47:32.931Z,49.45
2023-04-23T04:50:00.513Z,47.65
2023-04-23T04:52:27.710Z,48.57
2023-04-23T04:54:54.300Z,50.45
2023-04-23T04:57:22.933Z,51.10
2023-04-23T04:59:50.413Z,47.97
2023-04-23T05:02:17.195Z,46.22
2023-04-23T05:04:44.259Z,47.28
2023-04-23T05:07:11.208Z,47.28
2023-04-23T05:09:37.810Z,46.70
2023-04-23T05:12:07.420Z,48.20
2023-04-23T05:14:34.087Z,48.58
2023-04-23T05:17:00.957Z,47.83
2023-04-23T05:19:27.545Z,46.70
2023-04-23T05:21:54.167Z,44.90
2023-04-23T05:24:20.734Z,48.40
2023-04-23T05:26:47.330Z,46.75
2023-04-23T05:29:17.884Z,52.33
2023-04-23T05:31:44.522Z,47.30
2023-04-23T05:34:11.084Z,48.00
2023-04-23T05:36:37.630Z,50.70
2023-04-23T05:39:04.193Z,52.72
2023-04-23T05:41:30.873Z,50.72
2023-04-23T05:43:57.426Z,53.60
2023-04-23T05:46:24.096Z,51.38
2023-04-23T05:48:50.816Z,50.20
2023-04-23T05:51:17.871Z,55.58
2023-04-23T05:53:44.424Z,58.55
2023-04-23T05:56:11.034Z,54.70
2023-04-23T05:58:38.869Z,50.92
2023-04-23T06:01:05.724Z,51.53
2023-04-23T06:03:32.752Z,48.85
2023-04-23T06:05:59.549Z,51.38
2023-04-23T06:08:26.136Z,44.88
2023-04-23T06:10:52.728Z,61.20
2023-04-23T06:13:19.342Z,53.20
2023-04-23T06:15:45.956Z,59.75
2023-04-23T06:18:12.699Z,56.42
2023-04-23T06:20:39.392Z,56.63
2023-04-23T06:23:06.582Z,55.47
2023-04-23T06:25:33.132Z,57.83
2023-04-23T06:27:59.757Z,63.70
2023-04-23T06:30:26.472Z,53.30
2023-04-23T06:32:53.179Z,61.17
2023-04-23T06:35:19.943Z,59.20
2023-04-23T06:37:46.555Z,64.40
2023-04-23T06:40:13.203Z,58.08
2023-04-23T06:42:40.027Z,65.72
2023-04-23T06:45:07.245Z,60.80
2023-04-23T06:47:33.927Z,59.65
2023-04-23T06:50:00.498Z,59.17
2023-04-23T06:52:27.187Z,52.58
2023-04-23T06:54:53.759Z,56.67
2023-04-23T06:57:21.902Z,52.80
2023-04-23T06:59:48.481Z,55.65
2023-04-23T07:02:15.158Z,48.30
2023-04-23T07:04:42.171Z,58.45
2023-04-23T07:07:08.913Z,49.45
2023-04-23T07:09:35.464Z,52.17
2023-04-23T07:12:02.326Z,49.10
2023-04-23T07:14:28.902Z,46.70
2023-04-23T07:16:55.559Z,48.60
2023-04-23T07:19:22.149Z,45.58
2023-04-23T07:21:48.704Z,45.97
2023-04-23T07:24:15.477Z,43.40
2023-04-23T07:26:42.232Z,42.72
2023-04-23T07:29:11.157Z,40.92
2023-04-23T07:31:41.577Z,40.75
2023-04-23T07:34:09.066Z,41.92
2023-04-23T07:36:36.469Z,37.35
2023-04-23T07:39:03.313Z,29.95
2023-04-23T07:41:33.832Z,36.58
2023-04-23T07:44:00.962Z,33.60
2023-04-23T07:46:27.842Z,33.70
2023-04-23T07:48:55.612Z,33.45
2023-04-23T07:51:26.484Z,27.75
2023-04-23T07:53:58.036Z,30.00
2023-04-23T07:56:25.029Z,31.88
2023-04-23T07:58:53.902Z,32.83
2023-04-23T08:01:21.578Z,23.63
2023-04-23T08:03:48.387Z,20.67
2023-04-23T08:06:15.151Z,24.80
2023-04-23T08:08:41.827Z,21.13
2023-04-23T08:11:08.480Z,20.90
2023-04-23T08:13:35.066Z,18.25
2023-04-23T08:16:01.715Z,18.40
2023-04-23T08:18:28.488Z,22.08
2023-04-23T08:20:56.378Z,17.02
2023-04-23T08:23:23.146Z,16.50
2023-04-23T08:25:49.713Z,14.30
2023-04-23T08:28:18.300Z,14.90
2023-04-23T08:30:44.930Z,16.38
2023-04-23T08:33:11.498Z,13.30
2023-04-23T08:35:38.352Z,11.23
2023-04-23T08:38:04.894Z,11.50
2023-04-23T08:40:32.677Z,12.00
2023-04-23T08:43:02.662Z,14.30
2023-04-23T08:45:30.942Z,11.38
2023-04-23T08:48:02.008Z,14.20
2023-04-23T08:50:30.087Z,14.65
2023-04-23T08:52:58.121Z,16.33
2023-04-23T08:55:25.607Z,16.77
2023-04-23T08:57:52.265Z,15.05
2023-04-23T09:00:20.528Z,17.95
2023-04-23T09:02:48.427Z,19.80
2023-04-23T09:05:15.683Z,19.05
2023-04-23T09:07:42.720Z,17.63
2023-04-23T09:10:11.732Z,18.88
2023-04-23T09:12:39.766Z,20.75
2023-04-23T09:15:10.781Z,23.08
2023-04-23T09:17:44.312Z,21.52
2023-04-23T09:20:11.746Z,20.08
2023-04-23T09:22:49.102Z,19.48
2023-04-23T09:25:18.139Z,16.42
2023-04-23T09:27:45.773Z,17.45
2023-04-23T09:30:13.325Z,17.77
2023-04-23T09:32:42.358Z,15.90
2023-04-23T09:35:16.713Z,19.55
2023-04-23T09:37:49.456Z,17.02
2023-04-23T09:40:22.227Z,18.17
2023-04-23T09:42:50.116Z,17.63
2023-04-23T09:45:17.336Z,15.27
2023-04-23T09:47:52.192Z,14.43
2023-04-23T09:50:20.054Z,14.70
2023-04-23T09:52:54.141Z,12.57
2023-04-23T09:55:31.526Z,11.15
2023-04-23T09:57:58.562Z,10.90
2023-04-23T10:00:29.364Z,10.60
2023-04-23T10:02:56.122Z,8.68
2023-04-23T10:05:25.933Z,9.27
2023-04-23T10:07:59.723Z,12.80
2023-04-23T10:10:26.432Z,10.98
2023-04-23T10:12:57.153Z,12.43
2023-04-23T10:15:26.380Z,9.85
2023-04-23T10:17:53.968Z,8.98
2023-04-23T10:20:24.254Z,9.93
2023-04-23T10:22:53.497Z,11.38
2023-04-23T10:25:20.411Z,9.20
2023-04-23T10:27:54.341Z,8.23
2023-04-23T10:30:22.492Z,8.43
2023-04-23T10:32:49.928Z,7.07
2023-04-23T10:35:16.848Z,7.05
2023-04-23T10:37:44.790Z,7.85
2023-04-23T10:40:14.450Z,6.22
2023-04-23T10:42:45.872Z,8.63
2023-04-23T10:45:23.983Z,8.00
2023-04-23T10:47:55.355Z,8.63
2023-04-23T10:50:23.471Z,6.00
2023-04-23T10:52:57.632Z,7.32
2023-04-23T10:55:27.444Z,6.63
2023-04-23T10:58:05.042Z,8.73
2023-04-23T11:00:47.632Z,8.70
2023-04-23T11:03:43.625Z,8.07
2023-04-23T11:06:21.424Z,7.28
2023-04-23T11:08:54.999Z,6.38
2023-04-23T11:11:39.670Z,6.38
2023-04-23T11:14:14.360Z,6.75
2023-04-23T11:16:41.331Z,7.95
2023-04-23T11:19:17.209Z,6.22
2023-04-23T11:21:54.794Z,5.85
2023-04-23T11:24:23.690Z,11.50
2023-04-23T11:26:53.684Z,5.25
2023-04-23T11:29:23.143Z,7.85
2023-04-23T11:32:01.733Z,7.00
2023-04-23T11:34:29.505Z,6.20
2023-04-23T11:36:59.010Z,6.63
2023-04-23T11:39:25.923Z,6.68
2023-04-23T11:41:52.970Z,5.60
2023-04-23T11:44:21.311Z,4.53
2023-04-23T11:46:49.443Z,4.82
2023-04-23T11:49:17.488Z,5.55
2023-04-23T11:51:44.921Z,5.32
2023-04-23T11:54:12.188Z,3.92
2023-04-23T11:56:39.008Z,4.63
2023-04-23T11:59:06.065Z,4.10
2023-04-23T12:01:47.406Z,5.13
2023-04-23T12:04:25.193Z,4.32
2023-04-23T12:06:53.012Z,3.85
2023-04-23T12:09:21.258Z,5.20
2023-04-23T12:11:48.277Z,7.30
2023-04-23T12:14:16.636Z,4.40
2023-04-23T12:19:15.740Z,4.50
2023-04-23T12:21:56.917Z,4.72
2023-04-23T12:24:25.539Z,4.20
2023-04-23T12:26:54.649Z,4.22
2023-04-23T12:29:25.488Z,4.57
2023-04-23T12:31:53.183Z,3.50
2023-04-23T12:34:21.472Z,2.80
2023-04-23T12:36:52.504Z,3.67
2023-04-23T12:39:33.991Z,3.33
2023-04-23T12:42:05.544Z,4.00
2023-04-23T12:44:34.724Z,2.90
2023-04-23T12:47:03.665Z,2.38
2023-04-23T12:49:31.789Z,3.88
2023-04-23T12:52:02.999Z,3.78
2023-04-23T12:54:37.546Z,4.00
2023-04-23T12:57:08.570Z,2.60
2023-04-23T12:59:35.856Z,2.90
2023-04-23T13:02:03.279Z,3.22
2023-04-23T13:04:32.284Z,3.92
2023-04-23T13:09:27.910Z,4.40
2023-04-23T13:11:55.218Z,1.88
2023-04-23T13:14:21.822Z,2.30
2023-04-23T13:16:49.058Z,7.22
2023-04-23T13:19:17.281Z,1.33
2023-04-23T13:21:44.491Z,4.18
2023-04-23T13:24:11.044Z,3.05
2023-04-23T13:26:38.056Z,4.32
2023-04-23T13:29:04.751Z,3.70
2023-04-23T13:31:31.494Z,3.75
2023-04-23T13:33:58.334Z,2.33
2023-04-23T13:36:25.595Z,3.72
2023-04-23T13:38:52.407Z,3.95
2023-04-23T13:41:19.024Z,2.88
2023-04-23T13:43:45.645Z,4.00
2023-04-23T13:46:12.378Z,3.63
2023-04-23T13:48:39.047Z,3.72
2023-04-23T13:51:11.512Z,4.57
2023-04-23T13:53:43.929Z,4.60
2023-04-23T13:56:10.659Z,4.55
2023-04-23T13:58:37.277Z,4.18
2023-04-23T14:01:04.638Z,4.05
2023-04-23T14:03:31.427Z,3.93
2023-04-23T14:05:58.748Z,4.68
2023-04-23T14:08:25.471Z,3.50
2023-04-23T14:10:52.219Z,6.47
2023-04-23T14:13:18.829Z,3.63
2023-04-23T14:15:45.468Z,5.63
2023-04-23T14:18:12.103Z,6.50
2023-04-23T14:20:38.740Z,4.65
2023-04-23T14:23:44.265Z,6.38
2023-04-23T14:26:10.950Z,4.70
2023-04-23T14:28:45.134Z,4.00
2023-04-23T14:31:12.025Z,4.60
2023-04-23T14:33:38.662Z,4.93
2023-04-23T14:36:05.359Z,5.68
2023-04-23T14:38:31.957Z,5.43
2023-04-23T14:40:58.540Z,4.80
2023-04-23T14:43:25.155Z,7.88
2023-04-23T14:45:52.061Z,8.55
2023-04-23T14:48:18.684Z,6.82
2023-04-23T14:50:45.809Z,4.90
2023-04-23T14:53:12.394Z,4.63
2023-04-23T14:55:42.789Z,3.97
2023-04-23T14:58:09.426Z,2.28
2023-04-23T15:00:36.066Z,3.35
2023-04-23T15:03:07.083Z,2.05
2023-04-23T15:05:33.783Z,1.80
2023-04-23T15:08:00.426Z,2.83
2023-04-23T15:10:27.060Z,1.30
2023-04-23T15:12:53.649Z,1.70
2023-04-23T15:15:36.894Z,1.20
2023-04-23T15:18:10.660Z,1.63
2023-04-23T15:20:37.344Z,1.55
2023-04-23T15:23:04.356Z,2.63
2023-04-23T15:25:33.188Z,0.80
2023-04-23T15:28:00.834Z,1.73
2023-04-23T15:30:28.461Z,1.27
2023-04-23T15:32:55.668Z,1.30
2023-04-23T15:35:26.528Z,1.95
2023-04-23T15:37:54.397Z,2.10
2023-04-23T15:40:21.189Z,1.35
2023-04-23T15:42:49.918Z,1.40
2023-04-23T15:45:17.048Z,2.38
2023-04-23T15:47:43.845Z,0.98
2023-04-23T15:50:11.310Z,2.15
2023-04-23T15:52:38.246Z,2.17
2023-04-23T15:55:06.029Z,3.08
2023-04-23T15:57:32.677Z,2.00
2023-04-23T15:59:59.379Z,2.08
2023-04-23T16:02:26.175Z,1.35
2023-04-23T16:04:52.945Z,1.73
2023-04-23T16:07:19.536Z,1.33
2023-04-23T16:09:46.143Z,1.45
2023-04-23T16:12:12.909Z,1.35
2023-04-23T16:14:40.454Z,1.70
2023-04-23T16:17:07.179Z,2.23
2023-04-23T16:19:34.111Z,2.97
2023-04-23T16:22:00.697Z,1.50
2023-04-23T16:24:27.309Z,3.70
2023-04-23T16:26:53.944Z,3.22
2023-04-23T16:29:22.982Z,5.65
2023-04-23T16:31:49.893Z,5.93
2023-04-23T16:34:16.679Z,2.65
2023-04-23T16:36:43.349Z,5.28
2023-04-23T16:39:10.019Z,6.50
2023-04-23T16:41:36.680Z,5.30
2023-04-23T16:44:03.438Z,3.17
2023-04-23T16:46:31.310Z,3.22
2023-04-23T16:48:58.400Z,3.58
2023-04-23T16:51:26.450Z,4.55
2023-04-23T16:53:53.191Z,5.03
2023-04-23T16:56:20.878Z,2.70
2023-04-23T16:58:47.441Z,3.15
2023-04-23T17:01:14.346Z,3.45
2023-04-23T17:03:41.677Z,3.78
2023-04-23T17:06:40.924Z,2.75
2023-04-23T17:09:08.803Z,2.97
2023-04-23T17:11:36.057Z,4.68
2023-04-23T17:14:02.716Z,3.30
2023-04-23T17:16:29.618Z,4.88
2023-04-23T17:18:56.806Z,2.33
2023-04-23T17:21:23.938Z,4.30
2023-04-23T17:23:53.514Z,2.70
2023-04-23T17:26:20.064Z,2.78
2023-04-23T17:28:46.921Z,2.63
2023-04-23T17:31:13.511Z,4.18
2023-04-23T17:33:40.221Z,2.20
2023-04-23T17:36:06.887Z,2.97
2023-04-23T17:38:34.390Z,3.55
2023-04-23T17:41:01.024Z,2.85
2023-04-23T17:43:27.848Z,2.95
2023-04-23T17:45:54.494Z,3.72
2023-04-23T17:48:23.023Z,3.65
2023-04-23T17:50:49.787Z,2.80
2023-04-23T17:53:16.450Z,2.95
2023-04-23T17:55:43.001Z,3.92
2023-04-23T17:58:09.678Z,5.55
2023-04-23T18:00:37.301Z,3.33
2023-04-23T18:03:04.685Z,4.47
2023-04-23T18:05:31.436Z,4.00
2023-04-23T18:07:59.329Z,5.07
2023-04-23T18:10:26.273Z,10.57
2023-04-23T18:12:52.887Z,4.65
2023-04-23T18:15:20.515Z,4.05
2023-04-23T18:17:47.539Z,3.97
2023-04-23T18:20:14.395Z,3.38
2023-04-23T18:22:42.215Z,5.38
2023-04-23T18:25:12.852Z,3.80
2023-04-23T18:27:39.888Z,5.35
2023-04-23T18:30:08.293Z,5.32
2023-04-23T18:35:03.337Z,6.93
2023-04-23T18:37:37.188Z,3.45
2023-04-23T18:40:05.574Z,4.57
2023-04-23T18:42:32.224Z,4.55
2023-04-23T18:44:58.787Z,4.32
2023-04-23T18:47:29.481Z,4.53
2023-04-23T18:49:57.394Z,5.68
2023-04-23T18:52:23.965Z,6.82
2023-04-23T18:54:50.834Z,2.80
2023-04-23T18:57:17.420Z,5.95
2023-04-23T18:59:44.155Z,4.75
2023-04-23T19:02:14.669Z,3.97
2023-04-23T19:04:45.582Z,4.10
2023-04-23T19:07:12.249Z,4.25
2023-04-23T19:09:38.910Z,3.72
2023-04-23T19:12:05.708Z,4.85
2023-04-23T19:14:32.261Z,4.28
2023-04-23T19:16:59.029Z,4.57
2023-04-23T19:19:28.342Z,5.18
2023-04-23T19:21:54.886Z,5.55
2023-04-23T19:24:21.529Z,6.28
2023-04-23T19:26:48.109Z,4.25
2023-04-23T19:29:15.112Z,5.20
2023-04-23T19:31:41.847Z,5.20
2023-04-23T19:34:08.453Z,5.05
2023-04-23T19:36:35.056Z,5.85
2023-04-23T19:39:02.083Z,10.18
2023-04-23T19:41:28.674Z,5.57
2023-04-23T19:43:55.278Z,6.10
2023-04-23T19:46:21.855Z,4.93
2023-04-23T19:48:48.479Z,5.30
2023-04-23T19:51:15.059Z,5.70
2023-04-23T19:53:41.671Z,5.95
2023-04-23T19:56:12.849Z,6.95
2023-04-23T19:58:40.512Z,5.63
2023-04-23T20:01:08.015Z,5.87
2023-04-23T20:03:34.934Z,6.27
2023-04-23T20:06:01.701Z,5.97
2023-04-23T20:08:41.365Z,5.93
2023-04-23T20:11:10.536Z,5.55
2023-04-23T20:13:37.253Z,6.57
2023-04-23T20:16:04.309Z,5.25
2023-04-23T20:18:34.346Z,6.55
2023-04-23T20:21:00.959Z,6.22
2023-04-23T20:23:27.511Z,5.38
2023-04-23T20:25:54.309Z,7.65
2023-04-23T20:28:20.923Z,5.95
2023-04-23T20:30:47.482Z,5.53
2023-04-23T20:33:14.188Z,8.00
2023-04-23T20:35:43.098Z,5.32
2023-04-23T20:38:09.672Z,6.03
2023-04-23T20:40:36.248Z,4.82
2023-04-23T20:43:04.597Z,7.50
2023-04-23T20:45:32.301Z,4.93
2023-04-23T20:48:02.049Z,7.27
2023-04-23T20:50:28.679Z,7.47
2023-04-23T20:52:55.276Z,9.27
2023-04-23T20:55:21.818Z,7.18
2023-04-23T20:57:48.374Z,5.22
2023-04-23T21:00:15.257Z,5.07
2023-04-23T21:02:42.069Z,6.03
2023-04-23T21:05:11.720Z,5.10
2023-04-23T21:07:38.351Z,6.28
2023-04-23T21:10:05.949Z,5.05
2023-04-23T21:12:32.884Z,5.40
2023-04-23T21:14:59.576Z,5.38
2023-04-23T21:17:26.364Z,4.90
2023-04-23T21:19:52.948Z,5.97
2023-04-23T21:22:19.562Z,5.40
2023-04-23T21:24:46.099Z,6.40
2023-04-23T21:27:15.725Z,5.97
2023-04-23T21:29:45.304Z,4.15
2023-04-23T21:32:11.970Z,5.95
2023-04-23T21:34:38.618Z,5.05
2023-04-23T21:37:05.281Z,5.63
2023-04-23T21:39:32.777Z,6.65
2023-04-23T21:41:59.445Z,7.10
2023-04-23T21:44:28.511Z,5.57
2023-04-23T21:46:55.120Z,5.18
2023-04-23T21:49:21.736Z,6.60
2023-04-23T21:51:50.256Z,5.22
2023-04-23T21:56:43.245Z,7.78
2023-04-23T21:59:09.784Z,5.65
2023-04-23T22:01:36.987Z,6.07
2023-04-23T22:04:04.749Z,6.88
2023-04-23T22:06:31.552Z,4.93
2023-04-23T22:08:58.153Z,8.18
2023-04-23T22:11:25.826Z,4.47
2023-04-23T22:13:52.462Z,4.63
2023-04-23T22:16:27.973Z,3.47
2023-04-23T22:18:57.270Z,7.18
2023-04-23T22:21:23.894Z,3.67
2023-04-23T22:23:51.105Z,4.22
2023-04-23T22:26:17.932Z,5.80
2023-04-23T22:28:44.698Z,3.33
2023-04-23T22:31:11.503Z,3.17
2023-04-23T22:33:38.084Z,3.30
2023-04-23T22:36:05.482Z,2.90
2023-04-23T22:38:32.721Z,4.53
2023-04-23T22:40:59.759Z,6.22
2023-04-23T22:43:26.389Z,5.20
2023-04-23T22:45:53.029Z,2.95
2023-04-23T22:48:19.682Z,2.90
2023-04-23T22:50:46.244Z,4.43
2023-04-23T22:53:12.859Z,2.90
2023-04-23T22:55:39.774Z,2.20
2023-04-23T22:58:06.327Z,3.25
2023-04-23T23:00:32.998Z,2.58
2023-04-23T23:02:59.666Z,3.40
2023-04-23T23:05:26.698Z,2.00
2023-04-23T23:07:54.370Z,2.78
2023-04-23T23:10:22.875Z,2.60
2023-04-23T23:12:49.723Z,4.05
2023-04-23T23:15:16.349Z,2.33
2023-04-23T23:17:43.070Z,3.22
2023-04-23T23:20:11.213Z,2.05
2023-04-23T23:22:37.942Z,1.88
2023-04-23T23:25:06.882Z,3.35
2023-04-23T23:27:33.467Z,2.97
2023-04-23T23:30:00.108Z,2.88
2023-04-23T23:32:26.732Z,2.45
2023-04-23T23:34:53.319Z,3.78
2023-04-23T23:37:19.891Z,2.10
2023-04-23T23:39:46.515Z,3.70
2023-04-23T23:42:13.179Z,2.30
2023-04-23T23:44:39.812Z,2.38
2023-04-23T23:47:06.527Z,3.60
2023-04-23T23:49:33.123Z,2.85
2023-04-23T23:51:59.779Z,2.28
2023-04-23T23:54:26.389Z,3.40
2023-04-23T23:56:52.975Z,3.38
2023-04-23T23:59:19.541Z,1.73
